createdAt,value
2023-08-27T00:08:53.117Z,82.50
2023-08-27T00:18:57.276Z,82.35
2023-08-27T00:29:00.369Z,83.37
2023-08-27T00:39:05.458Z,83.57
2023-08-27T00:49:08.325Z,84.42
2023-08-27T00:59:13.352Z,87.21
2023-08-27T01:09:22.235Z,87.22
2023-08-27T01:19:27.126Z,88.30
2023-08-27T01:29:36.042Z,89.49
2023-08-27T01:39:38.883Z,89.93
2023-08-27T01:49:43.097Z,88.54
2023-08-27T01:59:45.924Z,89.47
2023-08-27T02:09:50.683Z,88.61
2023-08-27T02:19:53.508Z,87.33
2023-08-27T02:29:57.714Z,88.91
2023-08-27T02:40:00.569Z,89.00
2023-08-27T02:50:05.316Z,89.27
2023-08-27T03:00:09.386Z,89.54
2023-08-27T03:10:15.038Z,90.21
2023-08-27T03:20:18.460Z,90.64
2023-08-27T03:30:22.663Z,89.76
2023-08-27T03:40:25.540Z,89.93
2023-08-27T03:50:29.777Z,90.26
2023-08-27T04:00:33.863Z,90.60
2023-08-27T04:10:38.085Z,89.82
2023-08-27T04:20:40.963Z,89.99
2023-08-27T04:30:45.138Z,90.67
2023-08-27T04:40:51.655Z,90.58
2023-08-27T04:50:55.861Z,90.60
2023-08-27T05:00:59.326Z,90.96
2023-08-27T05:11:03.639Z,90.91
2023-08-27T05:21:06.502Z,90.85
2023-08-27T05:31:10.736Z,90.67
2023-08-27T05:41:13.537Z,89.86
2023-08-27T05:51:17.817Z,88.84
2023-08-27T06:01:20.663Z,88.33
2023-08-27T06:11:24.948Z,87.62
2023-08-27T06:21:28.764Z,86.51
2023-08-27T06:31:33.198Z,87.64
2023-08-27T06:41:36.006Z,87.99
2023-08-27T06:51:40.161Z,87.53
2023-08-27T07:01:42.945Z,86.95
2023-08-27T07:11:47.111Z,86.99
2023-08-27T07:21:49.992Z,86.67
2023-08-27T07:31:54.154Z,82.59
2023-08-27T07:41:56.984Z,84.87
2023-08-27T07:52:01.982Z,87.88
2023-08-27T08:02:05.076Z,88.84
2023-08-27T08:12:10.076Z,86.64
2023-08-27T08:22:12.898Z,86.31
2023-08-27T08:32:17.066Z,85.37
2023-08-27T08:42:24.259Z,85.20
2023-08-27T08:52:29.497Z,84.10
2023-08-27T09:02:32.349Z,79.97
2023-08-27T09:12:40.888Z,80.68
2023-08-27T09:22:44.255Z,74.59
2023-08-27T09:32:48.544Z,73.40
2023-08-27T09:43:05.310Z,70.69
2023-08-27T09:53:13.494Z,68.44
2023-08-27T10:03:23.665Z,65.36
2023-08-27T10:13:28.808Z,63.33
2023-08-27T10:23:32.923Z,59.62
2023-08-27T10:33:37.342Z,56.04
2023-08-27T10:43:40.211Z,55.10
2023-08-27T10:53:56.901Z,53.56
2023-08-27T11:04:01.337Z,52.30
2023-08-27T11:14:19.985Z,53.96
2023-08-27T11:24:25.959Z,54.29
2023-08-27T11:34:36.212Z,57.05
2023-08-27T11:44:50.470Z,62.73
2023-08-27T11:54:57.345Z,62.88
2023-08-27T12:05:00.310Z,67.33
2023-08-27T12:15:04.875Z,68.04
2023-08-27T12:25:08.215Z,69.35
2023-08-27T12:35:14.420Z,67.83
2023-08-27T12:45:17.241Z,65.84
2023-08-27T12:55:21.964Z,65.75
2023-08-27T13:05:24.860Z,67.08
2023-08-27T13:15:29.140Z,68.26
2023-08-27T13:25:32.074Z,68.09
2023-08-27T13:35:36.235Z,69.69
2023-08-27T13:45:39.168Z,68.57
2023-08-27T13:55:43.522Z,67.52
2023-08-27T14:05:46.358Z,62.89
2023-08-27T14:15:51.052Z,63.58
2023-08-27T14:25:54.116Z,63.65
2023-08-27T14:35:58.334Z,64.18
2023-08-27T14:46:01.143Z,62.89
2023-08-27T14:56:05.412Z,62.69
2023-08-27T15:06:08.270Z,62.66
2023-08-27T15:16:12.505Z,61.26
2023-08-27T15:26:15.348Z,59.71
2023-08-27T15:36:19.778Z,55.18
2023-08-27T15:46:22.654Z,55.39
2023-08-27T15:56:27.277Z,53.08
2023-08-27T16:06:30.196Z,55.16
2023-08-27T16:16:34.390Z,56.53
2023-08-27T16:26:37.221Z,58.26
2023-08-27T16:36:41.373Z,58.04
2023-08-27T16:46:44.324Z,59.17
2023-08-27T16:56:48.550Z,58.87
2023-08-27T17:06:51.436Z,59.82
2023-08-27T17:16:55.582Z,60.39
2023-08-27T17:26:58.365Z,60.82
2023-08-27T17:37:02.654Z,61.56
2023-08-27T17:47:06.143Z,53.21
2023-08-27T17:57:10.285Z,51.05
2023-08-27T18:07:13.677Z,54.97
2023-08-27T18:17:17.832Z,59.56
2023-08-27T18:27:20.615Z,60.66
2023-08-27T18:37:24.790Z,61.79
2023-08-27T18:47:27.656Z,63.22
2023-08-27T18:57:33.172Z,64.47
2023-08-27T19:07:39.532Z,66.42
2023-08-27T19:17:43.691Z,68.35
2023-08-27T19:27:46.613Z,69.83
2023-08-27T19:37:50.783Z,70.72
2023-08-27T19:47:53.878Z,71.42
2023-08-27T19:57:58.068Z,71.66
2023-08-27T20:08:00.936Z,72.85
2023-08-27T20:18:07.290Z,72.62
2023-08-27T20:28:10.078Z,71.44
2023-08-27T20:38:14.485Z,70.86
2023-08-27T20:48:17.748Z,72.76
2023-08-27T20:58:21.917Z,71.29
2023-08-27T21:08:24.795Z,73.72
2023-08-27T21:18:29.000Z,73.23
2023-08-27T21:28:31.785Z,75.49
2023-08-27T21:38:35.931Z,74.80
2023-08-27T21:48:38.743Z,77.67
2023-08-27T21:58:42.953Z,80.37
2023-08-27T22:08:45.797Z,80.12
2023-08-27T22:18:49.991Z,81.81
2023-08-27T22:28:52.787Z,83.10
2023-08-27T22:38:56.944Z,83.11
2023-08-27T22:48:59.900Z,84.97
2023-08-27T22:59:04.061Z,84.50
2023-08-27T23:09:06.972Z,85.13
2023-08-27T23:19:11.229Z,87.99
2023-08-27T23:29:14.437Z,86.80
2023-08-27T23:39:18.605Z,86.13
2023-08-27T23:49:21.395Z,86.91
2023-08-27T23:59:25.559Z,87.30
